»·PEaware :: N851BW KLAX-KSAN

N851BW :: KLAX-KSAN

FLIGHT INFORMATION

Flight Status: Arrived
Operator: Privately registered:
United States
More flights under this callsign
Pilot: Oliver L. (19934)
Aircraft: CESSNA 172 SKYHAWK
(C172)
More flights by this aircraft type
Origin: KLAX Los Angeles Intl
United States
Destination: KSAN San Diego Intl-Lindbergh
United States
More flights between these airports :: More routes between these airports
Route: +
File this flight plan on PilotEdge
Remarks:
Altitude:
(Current/Filed)
7,500ft
Speed:
(Current/Filed)
0kts
Departed: 08-Aug-18 08:01 PM
Arrived: 08-Aug-18 08:58 PM
Distance/Time
Traveled:
95nm/0:56
Distance/Time
To Go:
Arrived

Flight Plot

Page will automatically refresh every two minutes.


Map Options




Map Legend


Flown Route
Filed Route
Departure Airport
Arrival Airport
Navaid (VOR, NDB)
Fix

Horizontal Profiles

Position Reports

Time Latitude Longitude Heading Altitude Ground
Speed
08-Aug-18 19:50 33.932737 -118.399121 21 129ft 0kts
08-Aug-18 19:51 33.932737 -118.399121 21 129ft 0kts
08-Aug-18 19:52 33.932737 -118.399121 21 129ft 0kts
08-Aug-18 19:53 33.932737 -118.399121 21 129ft 0kts
08-Aug-18 19:54 33.932737 -118.399121 21 129ft 0kts
08-Aug-18 19:55 33.932737 -118.399121 21 129ft 0kts
08-Aug-18 19:56 33.933558 -118.398651 29 129ft 15kts
08-Aug-18 19:57 33.935076 -118.392964 82 129ft 27kts
08-Aug-18 19:58 33.936053 -118.383456 82 129ft 22kts
08-Aug-18 19:59 33.936505 -118.382775 1 129ft 0kts
08-Aug-18 20:00 33.936505 -118.382775 1 129ft 0kts
08-Aug-18 20:01 33.936505 -118.382775 1 129ft 0kts
08-Aug-18 20:02 33.936362 -118.392783 262 216ft 80kts
08-Aug-18 20:03 33.934633 -118.421105 269 1006ft 91kts
08-Aug-18 20:04 33.921881 -118.444866 213 1708ft 97kts
08-Aug-18 20:05 33.898851 -118.461555 213 2403ft 96kts
08-Aug-18 20:06 33.876393 -118.478145 213 3072ft 96kts
08-Aug-18 20:07 33.846437 -118.485700 165 3004ft 127kts
08-Aug-18 20:08 33.812472 -118.472615 165 3004ft 129kts
08-Aug-18 20:09 33.780457 -118.460261 165 3538ft 110kts
08-Aug-18 20:10 33.752343 -118.449498 164 4225ft 103kts
08-Aug-18 20:11 33.731803 -118.427779 129 4919ft 99kts
08-Aug-18 20:12 33.714175 -118.403689 128 5611ft 93kts
08-Aug-18 20:13 33.696545 -118.379865 128 6223ft 98kts
08-Aug-18 20:14 33.678201 -118.355296 128 6823ft 98kts
08-Aug-18 20:15 33.660157 -118.331148 128 7404ft 97kts
08-Aug-18 20:16 33.639774 -118.303959 129 7549ft 122kts
08-Aug-18 20:17 33.616430 -118.272948 129 7550ft 128kts
08-Aug-18 20:18 33.592405 -118.240955 129 7547ft 129kts
08-Aug-18 20:19 33.568323 -118.208881 129 7537ft 130kts
08-Aug-18 20:20 33.543846 -118.176284 129 7525ft 132kts
08-Aug-18 20:21 33.519987 -118.144507 132 7514ft 125kts
08-Aug-18 20:22 33.496742 -118.113615 132 7504ft 124kts
08-Aug-18 20:23 33.473759 -118.083089 132 7493ft 123kts
08-Aug-18 20:24 33.451000 -118.052892 132 7491ft 121kts
08-Aug-18 20:25 33.428404 -118.022935 132 7494ft 121kts
08-Aug-18 20:26 33.405975 -117.993222 133 7502ft 121kts
08-Aug-18 20:27 33.383214 -117.963098 133 7508ft 122kts
08-Aug-18 20:28 33.360401 -117.932929 132 7512ft 123kts
08-Aug-18 20:29 33.337448 -117.902495 127 7512ft 123kts
08-Aug-18 20:30 33.327877 -117.862801 104 7508ft 125kts
08-Aug-18 20:31 33.319840 -117.822307 104 7504ft 124kts
08-Aug-18 20:32 33.312016 -117.782250 104 7506ft 124kts
08-Aug-18 20:33 33.300688 -117.743290 115 7507ft 124kts
08-Aug-18 20:34 33.286252 -117.705798 115 7508ft 124kts
08-Aug-18 20:35 33.271846 -117.668351 115 7509ft 124kts
08-Aug-18 20:36 33.257485 -117.630683 109 7499ft 125kts
08-Aug-18 20:37 33.251488 -117.589591 100 7499ft 125kts
08-Aug-18 20:38 33.245758 -117.548555 100 7498ft 125kts
08-Aug-18 20:39 33.239793 -117.506107 100 7200ft 137kts
08-Aug-18 20:40 33.233371 -117.460548 100 6696ft 140kts
08-Aug-18 20:41 33.226946 -117.415034 100 6196ft 140kts
08-Aug-18 20:42 33.220487 -117.369456 100 5694ft 139kts
08-Aug-18 20:43 33.192911 -117.345571 165 5184ft 137kts
08-Aug-18 20:44 33.155844 -117.335171 168 4678ft 133kts
08-Aug-18 20:45 33.123682 -117.326656 168 4504ft 105kts
08-Aug-18 20:46 33.093967 -117.318689 167 4507ft 121kts
08-Aug-18 20:47 33.065780 -117.311214 167 4506ft 126kts
08-Aug-18 20:48 33.025800 -117.300635 167 4506ft 126kts
08-Aug-18 20:49 32.997334 -117.293107 167 4506ft 126kts
08-Aug-18 20:50 32.957524 -117.282586 167 4505ft 125kts
08-Aug-18 20:51 32.929310 -117.275136 167 4503ft 125kts
08-Aug-18 20:52 32.889785 -117.264741 165 4034ft 125kts
08-Aug-18 20:53 32.857540 -117.249501 162 3336ft 124kts
08-Aug-18 20:54 32.830200 -117.238404 164 2723ft 127kts
08-Aug-18 20:55 32.796280 -117.226073 164 1928ft 129kts
08-Aug-18 20:56 32.756911 -117.211490 151 1160ft 124kts
08-Aug-18 20:57 32.743380 -117.184541 117 880ft 104kts
08-Aug-18 20:58 32.730133 -117.174920 280 161ft 59kts
08-Aug-18 20:59 32.733330 -117.187885 323 21ft 20kts
08-Aug-18 21:00 32.734094 -117.188082 347 21ft 0kts
08-Aug-18 21:01 32.735125 -117.188796 193 21ft 0kts
08-Aug-18 21:02 32.735125 -117.188796 193 21ft 0kts
08-Aug-18 21:03 32.735125 -117.188796 193 21ft 0kts
08-Aug-18 21:04 32.735125 -117.188796 193 21ft 0kts

Navigation Log

Ident Type
1. KLAX Airport
2. KSAN Airport